sensor_id;sensor_type;location;lat;lon;timestamp;P1;P2;P0
55076;PMS7003;40971;44.702;11.030;2023-08-21T00:03:40;31.00;31.00;22.00
55076;PMS7003;40971;44.702;11.030;2023-08-21T00:13:42;32.67;32.67;24.00
55076;PMS7003;40971;44.702;11.030;2023-08-21T00:23:46;31.50;30.50;22.00
55076;PMS7003;40971;44.702;11.030;2023-08-21T00:33:49;31.00;30.25;21.00
55076;PMS7003;40971;44.702;11.030;2023-08-21T00:43:52;32.00;30.25;22.00
55076;PMS7003;40971;44.702;11.030;2023-08-21T00:53:55;35.00;34.00;22.00
55076;PMS7003;40971;44.702;11.030;2023-08-21T01:03:58;38.50;35.75;24.00
55076;PMS7003;40971;44.702;11.030;2023-08-21T01:24:13;33.75;32.25;22.25
55076;PMS7003;40971;44.702;11.030;2023-08-21T01:34:14;44.00;39.00;26.50
55076;PMS7003;40971;44.702;11.030;2023-08-21T01:44:17;36.00;35.00;24.33
55076;PMS7003;40971;44.702;11.030;2023-08-21T01:54:19;32.50;32.50;22.00
55076;PMS7003;40971;44.702;11.030;2023-08-21T02:04:21;36.75;34.00;22.25
55076;PMS7003;40971;44.702;11.030;2023-08-21T02:14:24;35.00;34.00;23.25
55076;PMS7003;40971;44.702;11.030;2023-08-21T02:24:27;36.50;34.00;21.75
55076;PMS7003;40971;44.702;11.030;2023-08-21T02:34:29;34.00;31.67;23.33
55076;PMS7003;40971;44.702;11.030;2023-08-21T02:44:31;35.50;34.00;24.00
55076;PMS7003;40971;44.702;11.030;2023-08-21T02:54:34;40.75;36.00;24.00
55076;PMS7003;40971;44.702;11.030;2023-08-21T03:04:36;38.00;36.25;24.75
55076;PMS7003;40971;44.702;11.030;2023-08-21T03:14:40;37.33;36.00;23.67
55076;PMS7003;40971;44.702;11.030;2023-08-21T03:24:43;43.25;37.00;24.75
55076;PMS7003;40971;44.702;11.030;2023-08-21T03:34:46;39.25;36.00;24.00
55076;PMS7003;40971;44.702;11.030;2023-08-21T03:44:47;44.50;36.00;24.00
55076;PMS7003;40971;44.702;11.030;2023-08-21T03:54:52;40.25;36.25;24.25
55076;PMS7003;40971;44.702;11.030;2023-08-21T04:04:54;44.00;38.50;24.50
55076;PMS7003;40971;44.702;11.030;2023-08-21T04:14:55;44.00;37.00;25.00
55076;PMS7003;40971;44.702;11.030;2023-08-21T04:24:57;47.33;39.67;26.00
55076;PMS7003;40971;44.702;11.030;2023-08-21T04:34:58;43.00;37.67;26.00
55076;PMS7003;40971;44.702;11.030;2023-08-21T04:45:01;49.50;41.25;28.50
55076;PMS7003;40971;44.702;11.030;2023-08-21T04:55:05;45.75;39.50;26.00
55076;PMS7003;40971;44.702;11.030;2023-08-21T05:05:08;49.00;41.67;28.00
55076;PMS7003;40971;44.702;11.030;2023-08-21T05:15:11;38.75;35.50;24.00
55076;PMS7003;40971;44.702;11.030;2023-08-21T05:25:15;48.38;40.88;24.00
55076;PMS7003;40971;44.702;11.030;2023-08-21T05:35:20;41.67;37.22;24.89
55076;PMS7003;40971;44.702;11.030;2023-08-21T05:45:22;42.67;37.33;26.00
55076;PMS7003;40971;44.702;11.030;2023-08-21T05:55:23;37.67;35.00;25.00
55076;PMS7003;40971;44.702;11.030;2023-08-21T06:05:24;38.50;35.50;25.00
55076;PMS7003;40971;44.702;11.030;2023-08-21T06:15:26;39.33;34.67;24.33
55076;PMS7003;40971;44.702;11.030;2023-08-21T06:25:28;36.75;33.50;24.00
55076;PMS7003;40971;44.702;11.030;2023-08-21T06:35:35;33.00;32.00;21.25
55076;PMS7003;40971;44.702;11.030;2023-08-21T06:45:39;32.50;31.25;21.25
55076;PMS7003;40971;44.702;11.030;2023-08-21T06:55:41;33.80;31.00;21.60
55076;PMS7003;40971;44.702;11.030;2023-08-21T07:05:54;38.00;34.00;22.00
55076;PMS7003;40971;44.702;11.030;2023-08-21T07:15:58;31.60;30.20;21.20
55076;PMS7003;40971;44.702;11.030;2023-08-21T07:26:04;30.80;30.60;21.00
55076;PMS7003;40971;44.702;11.030;2023-08-21T07:36:09;31.80;30.20;21.80
55076;PMS7003;40971;44.702;11.030;2023-08-21T07:46:17;26.40;25.20;19.80
55076;PMS7003;40971;44.702;11.030;2023-08-21T07:56:20;31.40;29.80;22.00
55076;PMS7003;40971;44.702;11.030;2023-08-21T08:06:23;28.00;28.00;20.20
55076;PMS7003;40971;44.702;11.030;2023-08-21T08:16:26;27.60;27.00;20.00
55076;PMS7003;40971;44.702;11.030;2023-08-21T08:26:29;28.20;26.60;20.20
55076;PMS7003;40971;44.702;11.030;2023-08-21T08:36:31;28.20;27.60;21.00
55076;PMS7003;40971;44.702;11.030;2023-08-21T08:46:34;31.40;29.80;21.40
55076;PMS7003;40971;44.702;11.030;2023-08-21T08:56:36;31.00;30.00;22.00
55076;PMS7003;40971;44.702;11.030;2023-08-21T09:06:38;29.25;29.00;22.00
55076;PMS7003;40971;44.702;11.030;2023-08-21T09:16:59;29.88;28.38;20.88
55076;PMS7003;40971;44.702;11.030;2023-08-21T09:27:15;27.20;27.20;20.40
55076;PMS7003;40971;44.702;11.030;2023-08-21T09:37:19;27.80;26.40;21.00
55076;PMS7003;40971;44.702;11.030;2023-08-21T09:47:23;31.50;30.25;21.38
55076;PMS7003;40971;44.702;11.030;2023-08-21T09:57:26;28.00;28.00;20.50
55076;PMS7003;40971;44.702;11.030;2023-08-21T10:07:32;28.38;28.38;20.63
55076;PMS7003;40971;44.702;11.030;2023-08-21T10:17:36;27.60;27.00;19.20
55076;PMS7003;40971;44.702;11.030;2023-08-21T10:27:40;30.33;28.67;21.00
55076;PMS7003;40971;44.702;11.030;2023-08-21T10:48:20;25.00;25.00;18.33
55076;PMS7003;40971;44.702;11.030;2023-08-21T10:58:23;27.60;26.40;20.00
55076;PMS7003;40971;44.702;11.030;2023-08-21T11:08:26;25.40;24.00;19.40
55076;PMS7003;40971;44.702;11.030;2023-08-21T11:18:30;28.50;27.50;19.50
55076;PMS7003;40971;44.702;11.030;2023-08-21T11:28:42;23.80;23.80;19.00
55076;PMS7003;40971;44.702;11.030;2023-08-21T11:38:59;27.00;27.00;19.20
55076;PMS7003;40971;44.702;11.030;2023-08-21T11:49:04;25.63;24.25;19.38
55076;PMS7003;40971;44.702;11.030;2023-08-21T11:59:05;24.25;24.25;19.00
55076;PMS7003;40971;44.702;11.030;2023-08-21T12:09:10;24.63;23.75;18.00
55076;PMS7003;40971;44.702;11.030;2023-08-21T12:19:11;24.67;24.67;19.00
55076;PMS7003;40971;44.702;11.030;2023-08-21T12:29:18;26.00;25.80;19.20
55076;PMS7003;40971;44.702;11.030;2023-08-21T12:39:21;21.80;21.80;17.00
55076;PMS7003;40971;44.702;11.030;2023-08-21T12:49:24;25.00;25.00;18.00
55076;PMS7003;40971;44.702;11.030;2023-08-21T12:59:26;24.67;24.67;17.67
55076;PMS7003;40971;44.702;11.030;2023-08-21T13:09:27;22.50;21.50;17.00
55076;PMS7003;40971;44.702;11.030;2023-08-21T13:19:31;24.38;23.63;18.38
55076;PMS7003;40971;44.702;11.030;2023-08-21T13:29:32;22.25;22.25;18.00
55076;PMS7003;40971;44.702;11.030;2023-08-21T13:39:37;21.50;21.50;15.13
55076;PMS7003;40971;44.702;11.030;2023-08-21T13:49:41;21.00;20.13;16.63
55076;PMS7003;40971;44.702;11.030;2023-08-21T13:59:45;24.63;24.63;18.13
55076;PMS7003;40971;44.702;11.030;2023-08-21T14:09:49;24.50;23.13;16.88
55076;PMS7003;40971;44.702;11.030;2023-08-21T14:19:54;21.00;19.25;15.38
55076;PMS7003;40971;44.702;11.030;2023-08-21T14:29:55;20.00;19.75;15.75
55076;PMS7003;40971;44.702;11.030;2023-08-21T14:39:56;21.50;21.50;16.75
55076;PMS7003;40971;44.702;11.030;2023-08-21T14:49:57;21.75;21.75;17.25
55076;PMS7003;40971;44.702;11.030;2023-08-21T15:00:01;22.14;21.57;17.14
55076;PMS7003;40971;44.702;11.030;2023-08-21T15:10:05;24.00;24.00;17.00
55076;PMS7003;40971;44.702;11.030;2023-08-21T15:20:06;25.25;24.50;17.50
55076;PMS7003;40971;44.702;11.030;2023-08-21T15:30:08;20.50;20.50;16.00
55076;PMS7003;40971;44.702;11.030;2023-08-21T15:40:13;21.13;21.13;15.38
55076;PMS7003;40971;44.702;11.030;2023-08-21T15:50:16;19.50;19.50;15.00
55076;PMS7003;40971;44.702;11.030;2023-08-21T16:00:20;23.50;23.50;16.00
55076;PMS7003;40971;44.702;11.030;2023-08-21T16:10:22;20.50;20.00;15.00
55076;PMS7003;40971;44.702;11.030;2023-08-21T16:20:24;20.67;20.00;15.33
55076;PMS7003;40971;44.702;11.030;2023-08-21T16:30:28;20.50;19.50;16.00
55076;PMS7003;40971;44.702;11.030;2023-08-21T16:40:31;22.50;21.50;17.25
55076;PMS7003;40971;44.702;11.030;2023-08-21T16:50:34;19.00;19.00;16.75
55076;PMS7003;40971;44.702;11.030;2023-08-21T17:00:36;18.33;18.33;15.00
55076;PMS7003;40971;44.702;11.030;2023-08-21T17:10:37;16.67;16.67;13.33
55076;PMS7003;40971;44.702;11.030;2023-08-21T17:20:38;19.00;18.00;14.00
55076;PMS7003;40971;44.702;11.030;2023-08-21T17:30:40;17.00;17.00;14.00
55076;PMS7003;40971;44.702;11.030;2023-08-21T17:40:42;16.75;16.75;14.75
55076;PMS7003;40971;44.702;11.030;2023-08-21T17:50:45;23.50;20.50;16.00
55076;PMS7003;40971;44.702;11.030;2023-08-21T18:00:47;24.75;23.00;17.25
55076;PMS7003;40971;44.702;11.030;2023-08-21T18:10:49;23.25;23.00;16.50
55076;PMS7003;40971;44.702;11.030;2023-08-21T18:20:54;22.67;22.67;17.00
55076;PMS7003;40971;44.702;11.030;2023-08-21T18:30:58;23.50;23.50;16.50
55076;PMS7003;40971;44.702;11.030;2023-08-21T18:41:01;22.00;22.00;15.80
55076;PMS7003;40971;44.702;11.030;2023-08-21T18:51:04;25.33;23.67;18.33
55076;PMS7003;40971;44.702;11.030;2023-08-21T19:01:06;25.75;25.75;19.00
55076;PMS7003;40971;44.702;11.030;2023-08-21T19:11:09;23.00;22.00;16.67
55076;PMS7003;40971;44.702;11.030;2023-08-21T19:21:13;21.33;21.33;18.00
55076;PMS7003;40971;44.702;11.030;2023-08-21T19:31:18;25.67;23.44;17.22
55076;PMS7003;40971;44.702;11.030;2023-08-21T19:41:22;24.75;24.75;16.63
55076;PMS7003;40971;44.702;11.030;2023-08-21T19:51:26;26.33;25.67;18.00
55076;PMS7003;40971;44.702;11.030;2023-08-21T20:01:30;25.00;24.11;17.33
55076;PMS7003;40971;44.702;11.030;2023-08-21T20:11:35;25.89;25.11;18.00
55076;PMS7003;40971;44.702;11.030;2023-08-21T20:21:39;26.00;25.63;18.50
55076;PMS7003;40971;44.702;11.030;2023-08-21T20:31:43;23.38;22.13;16.00
55076;PMS7003;40971;44.702;11.030;2023-08-21T20:41:46;28.75;26.75;20.50
55076;PMS7003;40971;44.702;11.030;2023-08-21T20:51:48;31.00;31.00;21.00
55076;PMS7003;40971;44.702;11.030;2023-08-21T21:01:50;24.33;24.33;19.00
55076;PMS7003;40971;44.702;11.030;2023-08-21T21:11:54;24.67;24.67;19.67
55076;PMS7003;40971;44.702;11.030;2023-08-21T21:21:57;34.50;32.75;21.00
55076;PMS7003;40971;44.702;11.030;2023-08-21T21:31:59;34.00;29.75;19.50
55076;PMS7003;40971;44.702;11.030;2023-08-21T21:42:03;30.25;29.25;20.75
55076;PMS7003;40971;44.702;11.030;2023-08-21T21:52:04;31.00;29.00;21.00
55076;PMS7003;40971;44.702;11.030;2023-08-21T22:02:06;31.75;31.00;21.00
55076;PMS7003;40971;44.702;11.030;2023-08-21T22:12:09;26.75;24.75;18.75
55076;PMS7003;40971;44.702;11.030;2023-08-21T22:22:15;29.50;29.25;20.75
55076;PMS7003;40971;44.702;11.030;2023-08-21T22:32:17;34.00;32.33;21.00
55076;PMS7003;40971;44.702;11.030;2023-08-21T22:42:19;27.67;27.67;20.33
55076;PMS7003;40971;44.702;11.030;2023-08-21T22:52:21;36.75;31.75;21.00
55076;PMS7003;40971;44.702;11.030;2023-08-21T23:02:24;29.33;28.67;21.33
55076;PMS7003;40971;44.702;11.030;2023-08-21T23:12:29;33.63;31.88;22.00
55076;PMS7003;40971;44.702;11.030;2023-08-21T23:22:32;35.00;34.00;22.50
55076;PMS7003;40971;44.702;11.030;2023-08-21T23:32:33;37.00;34.00;23.00
55076;PMS7003;40971;44.702;11.030;2023-08-21T23:42:35;36.33;34.67;22.33
55076;PMS7003;40971;44.702;11.030;2023-08-21T23:52:37;29.75;28.50;21.50
